sensor_id;sensor_type;location;lat;lon;timestamp;P1;P2;P0
36453;PMS5003;22478;51.740;-1.314;2022-10-16T00:01:14;282;282;
36453;PMS5003;22478;51.740;-1.314;2022-10-16T00:03:46;287;286;
36453;PMS5003;22478;51.740;-1.314;2022-10-16T00:06:14;300;299;
36453;PMS5003;22478;51.740;-1.314;2022-10-16T00:08:42;280;278;
36453;PMS5003;22478;51.740;-1.314;2022-10-16T00:11:11;288;288;
36453;PMS5003;22478;51.740;-1.314;2022-10-16T00:13:40;285;283;
36453;PMS5003;22478;51.740;-1.314;2022-10-16T00:16:09;279;278;
36453;PMS5003;22478;51.740;-1.314;2022-10-16T00:18:37;302;300;
36453;PMS5003;22478;51.740;-1.314;2022-10-16T00:21:06;285;285;
36453;PMS5003;22478;51.740;-1.314;2022-10-16T00:23:35;291;291;
36453;PMS5003;22478;51.740;-1.314;2022-10-16T00:26:04;318;318;
36453;PMS5003;22478;51.740;-1.314;2022-10-16T00:28:33;296;294;
36453;PMS5003;22478;51.740;-1.314;2022-10-16T00:31:02;280;278;
36453;PMS5003;22478;51.740;-1.314;2022-10-16T00:33:31;210;210;
36453;PMS5003;22478;51.740;-1.314;2022-10-16T00:35:58;276;275;
36453;PMS5003;22478;51.740;-1.314;2022-10-16T00:38:26;264;262;
36453;PMS5003;22478;51.740;-1.314;2022-10-16T00:40:53;244;244;
36453;PMS5003;22478;51.740;-1.314;2022-10-16T00:43:37;279;279;
36453;PMS5003;22478;51.740;-1.314;2022-10-16T00:46:10;244;241;
36453;PMS5003;22478;51.740;-1.314;2022-10-16T00:48:42;225;225;
36453;PMS5003;22478;51.740;-1.314;2022-10-16T00:51:12;267;260;
36453;PMS5003;22478;51.740;-1.314;2022-10-16T00:53:40;242;237;
36453;PMS5003;22478;51.740;-1.314;2022-10-16T00:56:08;196;193;
36453;PMS5003;22478;51.740;-1.314;2022-10-16T00:58:35;282;282;
36453;PMS5003;22478;51.740;-1.314;2022-10-16T01:01:02;204;204;
36453;PMS5003;22478;51.740;-1.314;2022-10-16T01:03:30;226;226;
36453;PMS5003;22478;51.740;-1.314;2022-10-16T01:06:02;226;226;
36453;PMS5003;22478;51.740;-1.314;2022-10-16T01:08:40;217;215;
36453;PMS5003;22478;51.740;-1.314;2022-10-16T01:11:17;229;229;
36453;PMS5003;22478;51.740;-1.314;2022-10-16T01:13:52;234;232;
36453;PMS5003;22478;51.740;-1.314;2022-10-16T01:16:23;209;209;
36453;PMS5003;22478;51.740;-1.314;2022-10-16T01:19:01;224;223;
36453;PMS5003;22478;51.740;-1.314;2022-10-16T01:21:36;233;230;
36453;PMS5003;22478;51.740;-1.314;2022-10-16T01:24:09;235;233;
36453;PMS5003;22478;51.740;-1.314;2022-10-16T01:26:49;229;229;
36453;PMS5003;22478;51.740;-1.314;2022-10-16T01:29:27;240;239;
36453;PMS5003;22478;51.740;-1.314;2022-10-16T01:31:59;238;235;
36453;PMS5003;22478;51.740;-1.314;2022-10-16T01:34:32;227;224;
36453;PMS5003;22478;51.740;-1.314;2022-10-16T01:37:05;206;206;
36453;PMS5003;22478;51.740;-1.314;2022-10-16T01:39:38;195;195;
36453;PMS5003;22478;51.740;-1.314;2022-10-16T01:42:08;218;218;
36453;PMS5003;22478;51.740;-1.314;2022-10-16T01:44:40;202;202;
36453;PMS5003;22478;51.740;-1.314;2022-10-16T01:47:09;216;215;
36453;PMS5003;22478;51.740;-1.314;2022-10-16T01:49:39;269;267;
36453;PMS5003;22478;51.740;-1.314;2022-10-16T01:52:10;242;240;
36453;PMS5003;22478;51.740;-1.314;2022-10-16T01:54:42;232;231;
36453;PMS5003;22478;51.740;-1.314;2022-10-16T01:57:12;210;210;
36453;PMS5003;22478;51.740;-1.314;2022-10-16T01:59:43;211;211;
36453;PMS5003;22478;51.740;-1.314;2022-10-16T02:02:13;283;282;
36453;PMS5003;22478;51.740;-1.314;2022-10-16T02:04:44;249;249;
36453;PMS5003;22478;51.740;-1.314;2022-10-16T02:07:15;260;260;
36453;PMS5003;22478;51.740;-1.314;2022-10-16T02:09:43;261;261;
36453;PMS5003;22478;51.740;-1.314;2022-10-16T02:12:13;267;263;
36453;PMS5003;22478;51.740;-1.314;2022-10-16T02:14:43;268;268;
36453;PMS5003;22478;51.740;-1.314;2022-10-16T02:17:11;259;257;
36453;PMS5003;22478;51.740;-1.314;2022-10-16T02:19:40;265;265;
36453;PMS5003;22478;51.740;-1.314;2022-10-16T02:22:09;282;282;
36453;PMS5003;22478;51.740;-1.314;2022-10-16T02:24:47;294;293;
36453;PMS5003;22478;51.740;-1.314;2022-10-16T02:27:22;298;298;
36453;PMS5003;22478;51.740;-1.314;2022-10-16T02:29:53;261;261;
36453;PMS5003;22478;51.740;-1.314;2022-10-16T02:32:27;234;230;
36453;PMS5003;22478;51.740;-1.314;2022-10-16T02:34:58;246;246;
36453;PMS5003;22478;51.740;-1.314;2022-10-16T02:37:28;262;262;
36453;PMS5003;22478;51.740;-1.314;2022-10-16T02:39:57;288;287;
36453;PMS5003;22478;51.740;-1.314;2022-10-16T02:42:27;292;292;
36453;PMS5003;22478;51.740;-1.314;2022-10-16T02:44:55;296;295;
36453;PMS5003;22478;51.740;-1.314;2022-10-16T02:47:23;285;282;
36453;PMS5003;22478;51.740;-1.314;2022-10-16T02:49:49;252;252;
36453;PMS5003;22478;51.740;-1.314;2022-10-16T02:52:16;247;247;
36453;PMS5003;22478;51.740;-1.314;2022-10-16T02:54:43;241;240;
36453;PMS5003;22478;51.740;-1.314;2022-10-16T02:57:10;257;257;
36453;PMS5003;22478;51.740;-1.314;2022-10-16T02:59:37;267;266;
36453;PMS5003;22478;51.740;-1.314;2022-10-16T03:02:04;247;245;
36453;PMS5003;22478;51.740;-1.314;2022-10-16T03:04:31;248;248;
36453;PMS5003;22478;51.740;-1.314;2022-10-16T03:06:58;267;267;
36453;PMS5003;22478;51.740;-1.314;2022-10-16T03:09:25;255;255;
36453;PMS5003;22478;51.740;-1.314;2022-10-16T03:11:52;256;256;
36453;PMS5003;22478;51.740;-1.314;2022-10-16T03:14:19;254;251;
36453;PMS5003;22478;51.740;-1.314;2022-10-16T03:16:47;258;258;
36453;PMS5003;22478;51.740;-1.314;2022-10-16T03:19:15;271;271;
36453;PMS5003;22478;51.740;-1.314;2022-10-16T03:21:43;258;258;
36453;PMS5003;22478;51.740;-1.314;2022-10-16T03:24:10;268;267;
36453;PMS5003;22478;51.740;-1.314;2022-10-16T03:26:37;259;259;
36453;PMS5003;22478;51.740;-1.314;2022-10-16T03:29:04;265;265;
36453;PMS5003;22478;51.740;-1.314;2022-10-16T03:31:32;258;258;
36453;PMS5003;22478;51.740;-1.314;2022-10-16T03:33:59;293;292;
36453;PMS5003;22478;51.740;-1.314;2022-10-16T03:36:27;324;324;
36453;PMS5003;22478;51.740;-1.314;2022-10-16T03:38:54;294;294;
36453;PMS5003;22478;51.740;-1.314;2022-10-16T03:41:21;300;300;
36453;PMS5003;22478;51.740;-1.314;2022-10-16T03:43:48;306;304;
36453;PMS5003;22478;51.740;-1.314;2022-10-16T03:46:15;292;291;
36453;PMS5003;22478;51.740;-1.314;2022-10-16T03:48:42;284;282;
36453;PMS5003;22478;51.740;-1.314;2022-10-16T03:51:09;291;291;
36453;PMS5003;22478;51.740;-1.314;2022-10-16T03:53:36;296;296;
36453;PMS5003;22478;51.740;-1.314;2022-10-16T03:56:03;307;305;
36453;PMS5003;22478;51.740;-1.314;2022-10-16T03:58:31;299;299;
36453;PMS5003;22478;51.740;-1.314;2022-10-16T04:00:58;295;295;
36453;PMS5003;22478;51.740;-1.314;2022-10-16T04:03:25;312;310;
36453;PMS5003;22478;51.740;-1.314;2022-10-16T04:05:52;290;290;
36453;PMS5003;22478;51.740;-1.314;2022-10-16T04:08:20;297;297;
36453;PMS5003;22478;51.740;-1.314;2022-10-16T04:10:47;298;295;
36453;PMS5003;22478;51.740;-1.314;2022-10-16T04:13:14;271;271;
36453;PMS5003;22478;51.740;-1.314;2022-10-16T04:15:41;288;286;
36453;PMS5003;22478;51.740;-1.314;2022-10-16T04:18:10;271;271;
36453;PMS5003;22478;51.740;-1.314;2022-10-16T04:20:37;287;287;
36453;PMS5003;22478;51.740;-1.314;2022-10-16T04:23:05;289;288;
36453;PMS5003;22478;51.740;-1.314;2022-10-16T04:25:32;267;267;
36453;PMS5003;22478;51.740;-1.314;2022-10-16T04:27:59;263;263;
36453;PMS5003;22478;51.740;-1.314;2022-10-16T04:30:26;284;284;
36453;PMS5003;22478;51.740;-1.314;2022-10-16T04:32:53;276;275;
36453;PMS5003;22478;51.740;-1.314;2022-10-16T04:35:21;284;284;
36453;PMS5003;22478;51.740;-1.314;2022-10-16T04:37:48;272;272;
36453;PMS5003;22478;51.740;-1.314;2022-10-16T04:40:16;292;291;
36453;PMS5003;22478;51.740;-1.314;2022-10-16T04:42:43;285;285;
36453;PMS5003;22478;51.740;-1.314;2022-10-16T04:45:10;287;286;
36453;PMS5003;22478;51.740;-1.314;2022-10-16T04:47:38;288;288;
36453;PMS5003;22478;51.740;-1.314;2022-10-16T04:50:05;301;301;
36453;PMS5003;22478;51.740;-1.314;2022-10-16T04:52:32;301;300;
36453;PMS5003;22478;51.740;-1.314;2022-10-16T04:54:59;297;297;
36453;PMS5003;22478;51.740;-1.314;2022-10-16T04:57:27;290;289;
36453;PMS5003;22478;51.740;-1.314;2022-10-16T04:59:54;284;284;
36453;PMS5003;22478;51.740;-1.314;2022-10-16T05:02:21;296;294;
36453;PMS5003;22478;51.740;-1.314;2022-10-16T05:04:48;301;301;
36453;PMS5003;22478;51.740;-1.314;2022-10-16T05:07:16;284;284;
36453;PMS5003;22478;51.740;-1.314;2022-10-16T05:09:43;284;284;
36453;PMS5003;22478;51.740;-1.314;2022-10-16T05:12:10;297;297;
36453;PMS5003;22478;51.740;-1.314;2022-10-16T05:14:37;306;306;
36453;PMS5003;22478;51.740;-1.314;2022-10-16T05:17:05;307;307;
36453;PMS5003;22478;51.740;-1.314;2022-10-16T05:19:33;289;286;
36453;PMS5003;22478;51.740;-1.314;2022-10-16T05:22:00;325;323;
36453;PMS5003;22478;51.740;-1.314;2022-10-16T05:24:27;311;311;
36453;PMS5003;22478;51.740;-1.314;2022-10-16T05:26:55;327;327;
36453;PMS5003;22478;51.740;-1.314;2022-10-16T05:29:22;309;309;
36453;PMS5003;22478;51.740;-1.314;2022-10-16T05:31:50;270;269;
36453;PMS5003;22478;51.740;-1.314;2022-10-16T05:34:18;268;268;
36453;PMS5003;22478;51.740;-1.314;2022-10-16T05:36:46;309;309;
36453;PMS5003;22478;51.740;-1.314;2022-10-16T05:39:14;291;291;
36453;PMS5003;22478;51.740;-1.314;2022-10-16T05:41:42;314;314;
36453;PMS5003;22478;51.740;-1.314;2022-10-16T05:44:09;307;307;
36453;PMS5003;22478;51.740;-1.314;2022-10-16T05:46:37;309;309;
36453;PMS5003;22478;51.740;-1.314;2022-10-16T05:49:04;319;319;
36453;PMS5003;22478;51.740;-1.314;2022-10-16T05:51:31;307;307;
36453;PMS5003;22478;51.740;-1.314;2022-10-16T05:53:58;298;297;
36453;PMS5003;22478;51.740;-1.314;2022-10-16T05:56:26;298;298;
36453;PMS5003;22478;51.740;-1.314;2022-10-16T05:58:53;312;310;
36453;PMS5003;22478;51.740;-1.314;2022-10-16T06:01:20;299;298;
36453;PMS5003;22478;51.740;-1.314;2022-10-16T06:03:47;303;302;
36453;PMS5003;22478;51.740;-1.314;2022-10-16T06:06:15;300;300;
36453;PMS5003;22478;51.740;-1.314;2022-10-16T06:08:44;298;298;
36453;PMS5003;22478;51.740;-1.314;2022-10-16T06:11:13;305;304;
36453;PMS5003;22478;51.740;-1.314;2022-10-16T06:13:42;308;308;
36453;PMS5003;22478;51.740;-1.314;2022-10-16T06:16:09;301;301;
36453;PMS5003;22478;51.740;-1.314;2022-10-16T06:18:36;307;307;
36453;PMS5003;22478;51.740;-1.314;2022-10-16T06:21:07;303;302;
36453;PMS5003;22478;51.740;-1.314;2022-10-16T06:23:35;326;323;
36453;PMS5003;22478;51.740;-1.314;2022-10-16T06:26:04;314;314;
36453;PMS5003;22478;51.740;-1.314;2022-10-16T06:28:32;295;295;
36453;PMS5003;22478;51.740;-1.314;2022-10-16T06:30:59;320;319;
36453;PMS5003;22478;51.740;-1.314;2022-10-16T06:33:26;303;302;
36453;PMS5003;22478;51.740;-1.314;2022-10-16T06:35:59;297;296;
36453;PMS5003;22478;51.740;-1.314;2022-10-16T06:38:27;313;312;
36453;PMS5003;22478;51.740;-1.314;2022-10-16T06:40:54;321;321;
36453;PMS5003;22478;51.740;-1.314;2022-10-16T06:43:21;315;315;
36453;PMS5003;22478;51.740;-1.314;2022-10-16T06:45:50;303;303;
36453;PMS5003;22478;51.740;-1.314;2022-10-16T06:48:18;284;283;
36453;PMS5003;22478;51.740;-1.314;2022-10-16T06:50:54;269;269;
36453;PMS5003;22478;51.740;-1.314;2022-10-16T06:53:22;297;297;
36453;PMS5003;22478;51.740;-1.314;2022-10-16T06:55:50;287;287;
36453;PMS5003;22478;51.740;-1.314;2022-10-16T06:58:17;277;277;
36453;PMS5003;22478;51.740;-1.314;2022-10-16T07:00:44;252;252;
36453;PMS5003;22478;51.740;-1.314;2022-10-16T07:03:12;256;254;
36453;PMS5003;22478;51.740;-1.314;2022-10-16T07:05:39;320;316;
36453;PMS5003;22478;51.740;-1.314;2022-10-16T07:08:08;344;344;
36453;PMS5003;22478;51.740;-1.314;2022-10-16T07:10:35;325;325;
36453;PMS5003;22478;51.740;-1.314;2022-10-16T07:13:02;250;249;
36453;PMS5003;22478;51.740;-1.314;2022-10-16T07:15:30;229;228;
36453;PMS5003;22478;51.740;-1.314;2022-10-16T07:17:57;231;231;
36453;PMS5003;22478;51.740;-1.314;2022-10-16T07:20:24;281;279;
36453;PMS5003;22478;51.740;-1.314;2022-10-16T07:22:51;302;299;
36453;PMS5003;22478;51.740;-1.314;2022-10-16T07:25:18;243;243;
36453;PMS5003;22478;51.740;-1.314;2022-10-16T07:27:46;267;267;
36453;PMS5003;22478;51.740;-1.314;2022-10-16T07:30:13;237;237;
36453;PMS5003;22478;51.740;-1.314;2022-10-16T07:32:40;243;242;
36453;PMS5003;22478;51.740;-1.314;2022-10-16T07:35:08;233;231;
36453;PMS5003;22478;51.740;-1.314;2022-10-16T07:37:36;245;245;
36453;PMS5003;22478;51.740;-1.314;2022-10-16T07:40:03;236;236;
36453;PMS5003;22478;51.740;-1.314;2022-10-16T07:42:31;260;260;
36453;PMS5003;22478;51.740;-1.314;2022-10-16T07:44:58;226;226;
36453;PMS5003;22478;51.740;-1.314;2022-10-16T07:47:26;226;226;
36453;PMS5003;22478;51.740;-1.314;2022-10-16T07:49:53;243;241;
36453;PMS5003;22478;51.740;-1.314;2022-10-16T07:52:20;249;249;
36453;PMS5003;22478;51.740;-1.314;2022-10-16T07:54:47;253;253;
36453;PMS5003;22478;51.740;-1.314;2022-10-16T07:57:15;253;252;
36453;PMS5003;22478;51.740;-1.314;2022-10-16T07:59:42;272;272;
36453;PMS5003;22478;51.740;-1.314;2022-10-16T08:02:09;262;262;
36453;PMS5003;22478;51.740;-1.314;2022-10-16T08:04:37;268;266;
36453;PMS5003;22478;51.740;-1.314;2022-10-16T08:07:04;269;268;
36453;PMS5003;22478;51.740;-1.314;2022-10-16T08:09:32;300;295;
36453;PMS5003;22478;51.740;-1.314;2022-10-16T08:11:59;284;284;
36453;PMS5003;22478;51.740;-1.314;2022-10-16T08:14:26;296;294;
36453;PMS5003;22478;51.740;-1.314;2022-10-16T08:16:53;260;258;
36453;PMS5003;22478;51.740;-1.314;2022-10-16T08:19:20;388;388;
36453;PMS5003;22478;51.740;-1.314;2022-10-16T08:21:48;371;371;
36453;PMS5003;22478;51.740;-1.314;2022-10-16T08:24:15;351;349;
36453;PMS5003;22478;51.740;-1.314;2022-10-16T08:26:42;324;323;
36453;PMS5003;22478;51.740;-1.314;2022-10-16T08:29:09;376;375;
36453;PMS5003;22478;51.740;-1.314;2022-10-16T08:31:37;435;433;
36453;PMS5003;22478;51.740;-1.314;2022-10-16T08:34:04;426;426;
36453;PMS5003;22478;51.740;-1.314;2022-10-16T08:36:31;427;424;
36453;PMS5003;22478;51.740;-1.314;2022-10-16T08:38:59;406;406;
36453;PMS5003;22478;51.740;-1.314;2022-10-16T08:41:31;342;340;
36453;PMS5003;22478;51.740;-1.314;2022-10-16T08:44:41;291;290;
36453;PMS5003;22478;51.740;-1.314;2022-10-16T08:47:21;286;286;
36453;PMS5003;22478;51.740;-1.314;2022-10-16T08:49:55;301;299;
36453;PMS5003;22478;51.740;-1.314;2022-10-16T08:52:25;327;326;
36453;PMS5003;22478;51.740;-1.314;2022-10-16T08:54:56;336;336;
36453;PMS5003;22478;51.740;-1.314;2022-10-16T08:57:24;298;295;
36453;PMS5003;22478;51.740;-1.314;2022-10-16T08:59:52;285;283;
36453;PMS5003;22478;51.740;-1.314;2022-10-16T09:02:23;307;305;
36453;PMS5003;22478;51.740;-1.314;2022-10-16T09:04:55;281;281;
36453;PMS5003;22478;51.740;-1.314;2022-10-16T09:07:34;311;308;
36453;PMS5003;22478;51.740;-1.314;2022-10-16T09:10:15;281;280;
36453;PMS5003;22478;51.740;-1.314;2022-10-16T09:12:52;281;278;
36453;PMS5003;22478;51.740;-1.314;2022-10-16T09:15:25;298;298;
36453;PMS5003;22478;51.740;-1.314;2022-10-16T09:18:00;271;271;
36453;PMS5003;22478;51.740;-1.314;2022-10-16T09:20:37;276;275;
36453;PMS5003;22478;51.740;-1.314;2022-10-16T09:23:14;274;274;
36453;PMS5003;22478;51.740;-1.314;2022-10-16T09:25:45;289;288;
36453;PMS5003;22478;51.740;-1.314;2022-10-16T09:28:14;265;262;
36453;PMS5003;22478;51.740;-1.314;2022-10-16T09:30:42;252;252;
36453;PMS5003;22478;51.740;-1.314;2022-10-16T09:33:11;309;309;
36453;PMS5003;22478;51.740;-1.314;2022-10-16T09:35:41;287;287;
36453;PMS5003;22478;51.740;-1.314;2022-10-16T09:38:09;183;183;
36453;PMS5003;22478;51.740;-1.314;2022-10-16T09:40:48;284;284;
36453;PMS5003;22478;51.740;-1.314;2022-10-16T09:43:19;234;234;
36453;PMS5003;22478;51.740;-1.314;2022-10-16T09:45:57;87;76;
36453;PMS5003;22478;51.740;-1.314;2022-10-16T09:48:26;7;4;
36453;PMS5003;22478;51.740;-1.314;2022-10-16T09:51:01;16;10;
36453;PMS5003;22478;51.740;-1.314;2022-10-16T09:53:45;0;0;
36453;PMS5003;22478;51.740;-1.314;2022-10-16T09:56:20;1;1;
36453;PMS5003;22478;51.740;-1.314;2022-10-16T09:58:49;0;0;
36453;PMS5003;22478;51.740;-1.314;2022-10-16T10:01:17;0;0;
36453;PMS5003;22478;51.740;-1.314;2022-10-16T10:03:47;1;0;
36453;PMS5003;22478;51.740;-1.314;2022-10-16T10:06:16;6;6;
36453;PMS5003;22478;51.740;-1.314;2022-10-16T10:08:56;0;0;
36453;PMS5003;22478;51.740;-1.314;2022-10-16T10:11:44;0;0;
36453;PMS5003;22478;51.740;-1.314;2022-10-16T10:14:18;0;0;
36453;PMS5003;22478;51.740;-1.314;2022-10-16T10:16:49;2;1;
36453;PMS5003;22478;51.740;-1.314;2022-10-16T10:19:18;2;1;
36453;PMS5003;22478;51.740;-1.314;2022-10-16T10:21:48;0;0;
36453;PMS5003;22478;51.740;-1.314;2022-10-16T10:24:17;1;1;
36453;PMS5003;22478;51.740;-1.314;2022-10-16T10:26:49;0;0;
36453;PMS5003;22478;51.740;-1.314;2022-10-16T10:29:25;0;0;
36453;PMS5003;22478;51.740;-1.314;2022-10-16T10:32:04;1;1;
36453;PMS5003;22478;51.740;-1.314;2022-10-16T10:34:45;4;1;
36453;PMS5003;22478;51.740;-1.314;2022-10-16T10:37:25;1;0;
36453;PMS5003;22478;51.740;-1.314;2022-10-16T10:40:05;0;0;
36453;PMS5003;22478;51.740;-1.314;2022-10-16T10:42:43;1;0;
36453;PMS5003;22478;51.740;-1.314;2022-10-16T10:45:22;2;0;
36453;PMS5003;22478;51.740;-1.314;2022-10-16T10:47:57;0;0;
36453;PMS5003;22478;51.740;-1.314;2022-10-16T10:50:34;1;0;
36453;PMS5003;22478;51.740;-1.314;2022-10-16T10:53:10;1;1;
36453;PMS5003;22478;51.740;-1.314;2022-10-16T10:55:45;0;0;
36453;PMS5003;22478;51.740;-1.314;2022-10-16T10:58:34;0;0;
36453;PMS5003;22478;51.740;-1.314;2022-10-16T11:01:12;0;0;
36453;PMS5003;22478;51.740;-1.314;2022-10-16T11:03:44;1;1;
36453;PMS5003;22478;51.740;-1.314;2022-10-16T11:06:23;0;0;
36453;PMS5003;22478;51.740;-1.314;2022-10-16T11:08:59;1;1;
36453;PMS5003;22478;51.740;-1.314;2022-10-16T11:11:30;1;1;
36453;PMS5003;22478;51.740;-1.314;2022-10-16T11:14:03;0;0;
36453;PMS5003;22478;51.740;-1.314;2022-10-16T11:16:38;3;2;
36453;PMS5003;22478;51.740;-1.314;2022-10-16T11:19:12;1;1;
36453;PMS5003;22478;51.740;-1.314;2022-10-16T11:21:47;0;0;
36453;PMS5003;22478;51.740;-1.314;2022-10-16T11:24:19;0;0;
36453;PMS5003;22478;51.740;-1.314;2022-10-16T11:26:50;1;1;
36453;PMS5003;22478;51.740;-1.314;2022-10-16T11:29:22;0;0;
36453;PMS5003;22478;51.740;-1.314;2022-10-16T11:31:55;0;0;
36453;PMS5003;22478;51.740;-1.314;2022-10-16T11:34:27;2;0;
36453;PMS5003;22478;51.740;-1.314;2022-10-16T11:36:59;0;0;
36453;PMS5003;22478;51.740;-1.314;2022-10-16T11:39:33;0;0;
36453;PMS5003;22478;51.740;-1.314;2022-10-16T11:42:02;3;1;
36453;PMS5003;22478;51.740;-1.314;2022-10-16T11:44:42;1;0;
36453;PMS5003;22478;51.740;-1.314;2022-10-16T11:47:23;1;1;
36453;PMS5003;22478;51.740;-1.314;2022-10-16T11:49:56;1;1;
36453;PMS5003;22478;51.740;-1.314;2022-10-16T11:52:28;1;1;
36453;PMS5003;22478;51.740;-1.314;2022-10-16T11:55:04;2;1;
36453;PMS5003;22478;51.740;-1.314;2022-10-16T11:57:42;2;1;
36453;PMS5003;22478;51.740;-1.314;2022-10-16T12:00:18;0;0;
36453;PMS5003;22478;51.740;-1.314;2022-10-16T12:02:53;0;0;
36453;PMS5003;22478;51.740;-1.314;2022-10-16T12:05:29;0;0;
36453;PMS5003;22478;51.740;-1.314;2022-10-16T12:08:11;1;1;
36453;PMS5003;22478;51.740;-1.314;2022-10-16T12:10:40;0;0;
36453;PMS5003;22478;51.740;-1.314;2022-10-16T12:13:41;1;1;
36453;PMS5003;22478;51.740;-1.314;2022-10-16T12:16:20;1;1;
36453;PMS5003;22478;51.740;-1.314;2022-10-16T12:18:49;0;0;
36453;PMS5003;22478;51.740;-1.314;2022-10-16T12:21:30;9;9;
36453;PMS5003;22478;51.740;-1.314;2022-10-16T12:23:58;0;0;
36453;PMS5003;22478;51.740;-1.314;2022-10-16T12:26:31;0;0;
36453;PMS5003;22478;51.740;-1.314;2022-10-16T12:29:11;5;1;
36453;PMS5003;22478;51.740;-1.314;2022-10-16T12:31:44;3;0;
36453;PMS5003;22478;51.740;-1.314;2022-10-16T12:34:17;1;1;
36453;PMS5003;22478;51.740;-1.314;2022-10-16T12:36:50;2;2;
36453;PMS5003;22478;51.740;-1.314;2022-10-16T12:39:20;3;2;
36453;PMS5003;22478;51.740;-1.314;2022-10-16T12:41:53;5;5;
36453;PMS5003;22478;51.740;-1.314;2022-10-16T12:44:32;14;12;
36453;PMS5003;22478;51.740;-1.314;2022-10-16T12:47:00;30;28;
36453;PMS5003;22478;51.740;-1.314;2022-10-16T12:49:30;47;41;
36453;PMS5003;22478;51.740;-1.314;2022-10-16T12:52:02;48;43;
36453;PMS5003;22478;51.740;-1.314;2022-10-16T12:54:30;63;56;
36453;PMS5003;22478;51.740;-1.314;2022-10-16T12:57:06;98;92;
36453;PMS5003;22478;51.740;-1.314;2022-10-16T12:59:46;111;108;
36453;PMS5003;22478;51.740;-1.314;2022-10-16T13:02:26;170;166;
36453;PMS5003;22478;51.740;-1.314;2022-10-16T13:05:31;187;185;
36453;PMS5003;22478;51.740;-1.314;2022-10-16T13:08:09;225;225;
36453;PMS5003;22478;51.740;-1.314;2022-10-16T13:10:52;234;234;
36453;PMS5003;22478;51.740;-1.314;2022-10-16T13:13:33;227;227;
36453;PMS5003;22478;51.740;-1.314;2022-10-16T13:16:18;215;213;
36453;PMS5003;22478;51.740;-1.314;2022-10-16T13:18:56;198;198;
36453;PMS5003;22478;51.740;-1.314;2022-10-16T13:21:37;234;234;
36453;PMS5003;22478;51.740;-1.314;2022-10-16T13:24:18;259;256;
36453;PMS5003;22478;51.740;-1.314;2022-10-16T13:26:55;290;290;
36453;PMS5003;22478;51.740;-1.314;2022-10-16T13:29:29;276;274;
36453;PMS5003;22478;51.740;-1.314;2022-10-16T13:31:58;267;265;
36453;PMS5003;22478;51.740;-1.314;2022-10-16T13:34:27;239;239;
36453;PMS5003;22478;51.740;-1.314;2022-10-16T13:36:55;254;254;
36453;PMS5003;22478;51.740;-1.314;2022-10-16T13:39:23;237;232;
36453;PMS5003;22478;51.740;-1.314;2022-10-16T13:42:01;211;210;
36453;PMS5003;22478;51.740;-1.314;2022-10-16T13:44:31;196;193;
36453;PMS5003;22478;51.740;-1.314;2022-10-16T13:47:10;163;160;
36453;PMS5003;22478;51.740;-1.314;2022-10-16T13:49:43;147;139;
36453;PMS5003;22478;51.740;-1.314;2022-10-16T13:52:19;139;127;
36453;PMS5003;22478;51.740;-1.314;2022-10-16T13:54:47;145;137;
36453;PMS5003;22478;51.740;-1.314;2022-10-16T13:57:14;125;116;
36453;PMS5003;22478;51.740;-1.314;2022-10-16T13:59:43;93;78;
36453;PMS5003;22478;51.740;-1.314;2022-10-16T14:02:15;104;86;
36453;PMS5003;22478;51.740;-1.314;2022-10-16T14:04:49;135;120;
36453;PMS5003;22478;51.740;-1.314;2022-10-16T14:07:18;122;105;
36453;PMS5003;22478;51.740;-1.314;2022-10-16T14:09:50;143;128;
36453;PMS5003;22478;51.740;-1.314;2022-10-16T14:12:18;137;124;
36453;PMS5003;22478;51.740;-1.314;2022-10-16T14:14:46;155;143;
36453;PMS5003;22478;51.740;-1.314;2022-10-16T14:17:18;164;163;
36453;PMS5003;22478;51.740;-1.314;2022-10-16T14:19:48;181;181;
36453;PMS5003;22478;51.740;-1.314;2022-10-16T14:22:23;191;188;
36453;PMS5003;22478;51.740;-1.314;2022-10-16T14:24:56;177;177;
36453;PMS5003;22478;51.740;-1.314;2022-10-16T14:27:24;169;165;
36453;PMS5003;22478;51.740;-1.314;2022-10-16T14:30:10;168;166;
36453;PMS5003;22478;51.740;-1.314;2022-10-16T14:32:42;178;176;
36453;PMS5003;22478;51.740;-1.314;2022-10-16T14:35:23;163;160;
36453;PMS5003;22478;51.740;-1.314;2022-10-16T14:37:52;162;157;
36453;PMS5003;22478;51.740;-1.314;2022-10-16T14:40:21;159;159;
36453;PMS5003;22478;51.740;-1.314;2022-10-16T14:42:51;157;155;
36453;PMS5003;22478;51.740;-1.314;2022-10-16T14:45:19;153;153;
36453;PMS5003;22478;51.740;-1.314;2022-10-16T14:47:49;141;135;
36453;PMS5003;22478;51.740;-1.314;2022-10-16T14:50:19;144;137;
36453;PMS5003;22478;51.740;-1.314;2022-10-16T14:52:46;153;151;
36453;PMS5003;22478;51.740;-1.314;2022-10-16T14:55:13;148;147;
36453;PMS5003;22478;51.740;-1.314;2022-10-16T14:57:42;150;148;
36453;PMS5003;22478;51.740;-1.314;2022-10-16T15:00:14;181;179;
36453;PMS5003;22478;51.740;-1.314;2022-10-16T15:02:44;219;219;
36453;PMS5003;22478;51.740;-1.314;2022-10-16T15:05:13;270;269;
36453;PMS5003;22478;51.740;-1.314;2022-10-16T15:07:43;209;207;
36453;PMS5003;22478;51.740;-1.314;2022-10-16T15:10:11;238;237;
36453;PMS5003;22478;51.740;-1.314;2022-10-16T15:12:39;163;160;
36453;PMS5003;22478;51.740;-1.314;2022-10-16T15:15:15;304;301;
36453;PMS5003;22478;51.740;-1.314;2022-10-16T15:17:53;204;204;
36453;PMS5003;22478;51.740;-1.314;2022-10-16T15:20:22;311;310;
36453;PMS5003;22478;51.740;-1.314;2022-10-16T15:22:50;280;280;
36453;PMS5003;22478;51.740;-1.314;2022-10-16T15:25:25;277;277;
36453;PMS5003;22478;51.740;-1.314;2022-10-16T15:27:56;295;294;
36453;PMS5003;22478;51.740;-1.314;2022-10-16T15:30:24;180;180;
36453;PMS5003;22478;51.740;-1.314;2022-10-16T15:32:51;156;156;
36453;PMS5003;22478;51.740;-1.314;2022-10-16T15:35:18;216;215;
36453;PMS5003;22478;51.740;-1.314;2022-10-16T15:37:46;227;227;
36453;PMS5003;22478;51.740;-1.314;2022-10-16T15:40:14;165;164;
36453;PMS5003;22478;51.740;-1.314;2022-10-16T15:42:42;191;191;
36453;PMS5003;22478;51.740;-1.314;2022-10-16T15:45:10;182;182;
36453;PMS5003;22478;51.740;-1.314;2022-10-16T15:47:38;170;170;
36453;PMS5003;22478;51.740;-1.314;2022-10-16T15:50:07;140;138;
36453;PMS5003;22478;51.740;-1.314;2022-10-16T15:52:36;185;179;
36453;PMS5003;22478;51.740;-1.314;2022-10-16T15:55:03;199;198;
36453;PMS5003;22478;51.740;-1.314;2022-10-16T15:57:32;193;193;
36453;PMS5003;22478;51.740;-1.314;2022-10-16T15:59:58;183;180;
36453;PMS5003;22478;51.740;-1.314;2022-10-16T16:02:26;210;209;
36453;PMS5003;22478;51.740;-1.314;2022-10-16T16:04:53;138;137;